• Join FlightAware (Why Join?)
  • Login
  • US Flag 
11:54PM EDT


 

Airport Tracker/Info


-or-


 

Live Flight TrackerFlight Track Log ✈ SKW6306 ✈ 27-Jun-2013 ✈ KDEN - CYXE

Flight Track Log - Related Links

Times and Time Zones

All times are in EDT time to prevent confusion due to time zone crossing. See the SKW6306 flight status page for this flight to view local times or setup timezone preferences in your user account.

Time Position Orientation Groundspeed Altitude Reporting Facility
EDT Latitude Longitude Course Direction KTS MPH feet Rate Location/Type
02:40PM 39.9333 -104.7000 346° North 203 234 7,300  Level Denver TRACON
02:41PM 39.9761 -104.6883 12° North 216 249 8,600 1,500 Climbing Denver Center
02:42PM 40.0503 -104.6594 17° North 258 297 9,900 1,380 Climbing Denver Center
02:43PM 40.2682 -104.8021 347° North  Level FlightAware Approximate
02:43PM 40.1300 -104.6781 350° North 288 331 11,500  Level Denver Center
02:44PM 40.3731 -104.8355 346° North  Level FlightAware Approximate
02:44PM 40.2192 -104.7008 349° North 301 346 13,400  Level Denver Center
02:45PM 40.4776 -104.8703 346° North  Level FlightAware Approximate
02:45PM 40.2997 -104.7228 348° North 297 342 15,000  Level Denver Center
02:46PM 40.3903 -104.7461 349° North 310 357 16,600 1,260 Climbing Denver Center
02:47PM 40.4739 -104.7681 349° North 307 353 17,700 960 Climbing Denver Center
02:48PM 40.5608 -104.7906 349° North 317 365 18,700 960 Climbing Denver Center
02:49PM 40.6547 -104.8172 348° North 324 373 19,700 900 Climbing Denver Center
02:50PM 40.7461 -104.8403 349° North 333 383 20,600 780 Climbing Denver Center
02:51PM 40.8222 -104.8642 347° North 323 372 21,400 840 Climbing Denver Center
02:52PM 40.9269 -104.8967 347° North 340 391 22,400 1,020 Climbing Denver Center
02:53PM 41.0344 -104.9189 351° North 349 402 23,600 960 Climbing Denver Center
02:54PM 41.1278 -104.9375 351° North 352 405 24,500 900 Climbing Denver Center
02:55PM 41.2347 -104.9592 351° North 350 403 25,500 720 Climbing Denver Center
02:56PM 41.3281 -104.9819 350° North 352 405 26,000 600 Climbing Denver Center
02:57PM 41.4406 -105.0050 351° North 361 415 26,800 540 Climbing Denver Center
02:58PM 41.5361 -105.0258 351° North 361 415 27,200 480 Climbing Denver Center
02:59PM 41.6494 -105.0506 351° North 369 425 27,800 420 Climbing Denver Center
03:00PM 41.7331 -105.0697 350° North 375 432 28,100 360 Climbing Denver Center
03:01PM 41.8503 -105.0933 351° North 380 437 28,600 420 Climbing Denver Center
03:02PM 41.9686 -105.1203 350° North 383 441 29,000 420 Climbing Denver Center
03:03PM 42.0697 -105.1422 351° North 383 441 29,500 480 Climbing Denver Center
03:04PM 42.1894 -105.1686 351° North 387 445 30,000 480 Climbing Denver Center
03:05PM 42.2908 -105.1900 351° North 385 443 30,500 480 Climbing Denver Center
03:06PM 42.4092 -105.2156 351° North 383 441 31,100 480 Climbing Denver Center
03:07PM 42.5108 -105.2392 350° North 384 442 31,600 420 Climbing Denver Center
03:08PM 42.6275 -105.2656 351° North 380 437 32,000 180 Climbing Denver Center
03:09PM 42.7283 -105.2881 351° North 380 437 32,000  Level Denver Center
03:10PM 42.8319 -105.3103 351° North 385 443 32,000  Level Denver Center
03:12PM 42.9525 -105.3350 351° North 390 449 32,000  Level Denver Center
03:13PM 43.0547 -105.3583 351° North 388 447 32,000  Level Denver Center
03:14PM 43.1739 -105.3847 351° North 387 445 32,000  Level Denver Center
03:15PM 43.2758 -105.4078 351° North 388 447 32,000  Level Denver Center
03:16PM 43.3939 -105.4344 351° North 386 444 32,000  Level Denver Center
03:17PM 43.4939 -105.4561 351° North 382 440 32,000  Level Denver Center
03:18PM 43.6108 -105.4836 350° North 382 440 32,000  Level Denver Center
03:19PM 43.7103 -105.5053 351° North 379 436 32,000  Level Denver Center
03:20PM 43.8094 -105.5286 350° North 378 435 32,000  Level Denver Center
03:21PM 43.9267 -105.5553 351° North 380 437 32,000  Level Denver Center
03:22PM 44.0261 -105.5786 350° North 380 437 32,000  Level Denver Center
03:23PM 44.1422 -105.6042 351° North 378 435 32,000  Level Denver Center
03:24PM 44.2428 -105.6272 351° North 380 437 32,000  Level Denver Center
03:25PM 44.3600 -105.6542 351° North 381 438 32,000  Level Denver Center
03:26PM 44.4444 -105.6767 349° North 383 441 32,000  Level Salt Lake Center
03:27PM 44.5444 -105.7000 351° North 382 440 32,000  Level Salt Lake Center
03:28PM 44.6628 -105.7281 350° North 385 443 32,000  Level Salt Lake Center
03:29PM 44.7633 -105.7536 350° North 384 442 32,000  Level Salt Lake Center
03:30PM 44.8636 -105.7786 350° North 383 441 32,000  Level Salt Lake Center
03:31PM 44.9819 -105.8031 352° North 383 441 32,000  Level Salt Lake Center
03:32PM 45.0819 -105.8283 350° North 382 440 32,000  Level Salt Lake Center
03:33PM 45.2011 -105.8564 351° North 387 445 32,000  Level Salt Lake Center
03:34PM 45.3136 -105.8836 350° North 387 445 32,000  Level Salt Lake Center
03:35PM 45.4200 -105.9100 350° North 389 448 32,000  Level Salt Lake Center
03:36PM 45.5261 -105.9356 350° North 388 447 32,000  Level Salt Lake Center
03:37PM 45.6325 -105.9606 351° North 387 445 32,000  Level Salt Lake Center
03:38PM 45.7394 -105.9875 350° North 389 448 32,000  Level Salt Lake Center
03:39PM 45.8456 -106.0125 351° North 388 447 32,000  Level Salt Lake Center
03:40PM 45.9725 -106.0431 351° North 387 445 32,000  Level Salt Lake Center
03:41PM 46.0794 -106.0683 351° North 387 445 32,000  Level Salt Lake Center
03:42PM 46.1864 -106.0958 350° North 388 447 32,000  Level Salt Lake Center
03:43PM 46.2922 -106.1219 350° North 388 447 32,000  Level Salt Lake Center
03:44PM 46.3997 -106.1489 350° North 389 448 32,000  Level Salt Lake Center
03:45PM 46.5064 -106.1761 350° North 389 448 32,000  Level Salt Lake Center
03:46PM 46.6128 -106.2042 350° North 389 448 32,000  Level Salt Lake Center
03:47PM 46.7400 -106.2361 350° North 388 447 32,000  Level Salt Lake Center
03:48PM 46.8469 -106.2631 350° North 389 448 32,000  Level Salt Lake Center
03:50PM 46.9528 -106.2908 350° North 388 447 32,000  Level Salt Lake Center
03:51PM 47.0589 -106.3200 349° North 388 447 32,000  Level Salt Lake Center
03:52PM 47.1644 -106.3464 350° North 388 447 32,000  Level Salt Lake Center
03:53PM 47.2692 -106.3731 350° North 386 444 32,000  Level Salt Lake Center
03:54PM 47.3989 -106.4072 350° North 389 448 32,000  Level Salt Lake Center
03:55PM 47.5031 -106.4350 350° North 385 443 32,000  Level Salt Lake Center
03:56PM 47.6075 -106.4633 350° North 382 440 32,000  Level Salt Lake Center
03:57PM 47.7111 -106.4906 350° North 381 438 32,000  Level Salt Lake Center
03:58PM 47.8150 -106.5172 350° North 380 437 32,000  Level Salt Lake Center
03:59PM 47.9186 -106.5467 349° North 380 437 32,000  Level Salt Lake Center
04:00PM 48.0219 -106.5739 350° North 378 435 32,000  Level Salt Lake Center
04:01PM 48.1458 -106.6069 350° North 378 435 32,000  Level Salt Lake Center
04:02PM 48.2492 -106.6406 348° North 379 436 32,000  Level Salt Lake Center
04:03PM 48.3475 -106.6897 342° North 377 434 32,000  Level Salt Lake Center
04:04PM 48.4456 -106.7378 342° North 374 430 32,000  Level Salt Lake Center
04:05PM 48.5428 -106.7856 342° North 370 426 32,000  Level Salt Lake Center
04:06PM 48.6403 -106.8344 342° North 370 426 32,000  Level Salt Lake Center
04:07PM 48.7578 -106.8933 342° North 370 426 32,000  Level Salt Lake Center
04:08PM 48.8553 -106.9431 341° North 372 428 32,000  Level Salt Lake Center
04:09PM 48.9514 -106.9906 342° North 366 421 32,000  Level Salt Lake Center
04:10PM 49.0492 -107.0361 343° North 368 423 32,000  Level Salt Lake Center
04:11PM 49.1553 -107.0489 355° North 376 433 32,000  Level Salt Lake Center
04:12PM 49.2622 -107.0644 355° North 382 440 32,000  Level Salt Lake Center
04:13PM 49.3889 -107.0819 355° North 382 440 32,000  Level Salt Lake Center
04:14PM 49.4500 -107.1333 331° Northwest 380 437 32,000  Level Winnipeg Center
04:15PM 49.5500 -107.1500 354° North 380 437 32,000  Level Winnipeg Center
04:16PM 49.6667 -107.1500 360° North 370 426 32,000  Level Winnipeg Center
04:17PM 49.7667 -107.1667 354° North 370 426 32,000  Level Winnipeg Center
04:18PM 49.8667 -107.1833 354° North 370 426 32,000  Level Winnipeg Center
04:19PM 49.9667 -107.2167 348° North 360 414 32,000  Level Winnipeg Center
04:20PM 50.0667 -107.2000 North 370 426 32,000  Level Winnipeg Center
04:21PM 50.1833 -107.2333 350° North 370 426 32,000  Level Winnipeg Center
04:22PM 50.2833 -107.2333 360° North 380 437 32,000  Level Winnipeg Center
04:23PM 50.4000 -107.1667 20° North 400 460 32,000  Level Winnipeg Center
04:24PM 50.5000 -107.1500 North 400 460 32,000  Level Winnipeg Center
04:25PM 50.6000 -107.0833 23° Northeast 390 449 32,000  Level Winnipeg Center
04:26PM 50.7167 -107.0500 10° North 390 449 32,000 -840 Level Winnipeg Center
04:27PM 50.8167 -107.0000 18° North 400 460 30,400 -1,860 Descending Winnipeg Center
04:28PM 50.9167 -106.9667 12° North 390 449 28,300 -2,100 Descending Winnipeg Center
04:29PM 51.0167 -106.9333 12° North 370 426 26,300 -1,980 Descending Winnipeg Center
04:30PM 51.1167 -106.9000 12° North 350 403 24,400 -2,040 Descending Winnipeg Center
04:31PM 51.2167 -106.8500 17° North 340 391 22,300 -2,100 Descending Winnipeg Center
04:32PM 51.3000 -106.8167 14° North 330 380 20,300 -2,100 Descending Winnipeg Center
04:33PM 51.3833 -106.7833 14° North 320 368 18,200 -1,980 Descending Winnipeg Center
04:34PM 51.4833 -106.7667 North 310 357 16,400 -1,920 Descending Winnipeg Center
04:35PM 51.5500 -106.7333 17° North 300 345 14,400 -2,100 Descending Winnipeg Center
04:36PM 51.6333 -106.7000 14° North 300 345 12,300 -2,040 Descending Winnipeg Center
04:37PM 51.7000 -106.6500 25° Northeast 290 334 10,400 -1,980 Descending Winnipeg Center
04:38PM 51.8000 -106.6167 12° North 290 334 8,400 -1,980 Descending Winnipeg Center
04:39PM 51.8667 -106.6000 North 280 322 6,500 -1,800 Descending Winnipeg Center
04:40PM 51.9333 -106.5667 17° North 270 311 4,900 -1,080 Descending Winnipeg Center
04:41PM 52.0000 -106.5333 17° North 260 299 4,400 -540 Descending Winnipeg Center
04:42PM 52.0667 -106.5167 North 240 276 3,900 -540 Descending Winnipeg Center